sensor_id;sensor_type;location;lat;lon;timestamp;P1;durP1;ratioP1;P2;durP2;ratioP2
17496;SDS011;62150;43.582;1.456;2022-07-29T05:47:05;5.38;;;2.50;;
17496;SDS011;62150;43.582;1.456;2022-07-29T05:49:33;5.88;;;2.75;;
17496;SDS011;62150;43.582;1.456;2022-07-29T05:52:01;6.30;;;2.60;;
17496;SDS011;62150;43.582;1.456;2022-07-29T05:54:29;6.32;;;2.72;;
17496;SDS011;62150;43.582;1.456;2022-07-29T05:57:02;6.43;;;2.75;;
17496;SDS011;62150;43.582;1.456;2022-07-29T05:59:30;6.22;;;2.72;;
17496;SDS011;62150;43.582;1.456;2022-07-29T06:02:01;4.75;;;2.58;;
17496;SDS011;62150;43.582;1.456;2022-07-29T06:04:32;6.60;;;2.70;;
17496;SDS011;62150;43.582;1.456;2022-07-29T06:07:00;5.90;;;2.60;;
17496;SDS011;62150;43.582;1.456;2022-07-29T06:09:29;5.63;;;2.63;;
17496;SDS011;62150;43.582;1.456;2022-07-29T06:11:57;4.40;;;2.70;;
17496;SDS011;62150;43.582;1.456;2022-07-29T06:14:26;6.18;;;2.80;;
17496;SDS011;62150;43.582;1.456;2022-07-29T06:16:55;5.30;;;2.75;;
17496;SDS011;62150;43.582;1.456;2022-07-29T06:19:23;5.25;;;2.45;;
17496;SDS011;62150;43.582;1.456;2022-07-29T06:21:52;5.15;;;2.75;;
17496;SDS011;62150;43.582;1.456;2022-07-29T06:24:21;5.40;;;2.60;;
17496;SDS011;62150;43.582;1.456;2022-07-29T06:26:49;7.38;;;2.80;;
17496;SDS011;62150;43.582;1.456;2022-07-29T06:29:18;6.53;;;3.00;;
17496;SDS011;62150;43.582;1.456;2022-07-29T06:31:45;6.90;;;2.90;;
17496;SDS011;62150;43.582;1.456;2022-07-29T06:34:13;5.35;;;2.63;;
17496;SDS011;62150;43.582;1.456;2022-07-29T06:36:41;4.90;;;2.55;;
17496;SDS011;62150;43.582;1.456;2022-07-29T06:39:10;6.00;;;2.85;;
17496;SDS011;62150;43.582;1.456;2022-07-29T06:41:37;4.57;;;2.72;;
17496;SDS011;62150;43.582;1.456;2022-07-29T06:44:05;6.13;;;2.97;;
17496;SDS011;62150;43.582;1.456;2022-07-29T06:46:32;7.00;;;2.88;;
17496;SDS011;62150;43.582;1.456;2022-07-29T06:49:00;4.28;;;2.65;;
17496;SDS011;62150;43.582;1.456;2022-07-29T06:51:28;5.75;;;2.95;;
17496;SDS011;62150;43.582;1.456;2022-07-29T06:53:55;7.20;;;2.90;;
17496;SDS011;62150;43.582;1.456;2022-07-29T06:56:25;6.20;;;2.95;;
17496;SDS011;62150;43.582;1.456;2022-07-29T06:58:52;6.57;;;2.97;;
17496;SDS011;62150;43.582;1.456;2022-07-29T07:01:20;6.78;;;3.00;;
17496;SDS011;62150;43.582;1.456;2022-07-29T07:03:47;6.53;;;2.92;;
17496;SDS011;62150;43.582;1.456;2022-07-29T07:06:15;6.50;;;3.17;;
17496;SDS011;62150;43.582;1.456;2022-07-29T07:08:43;6.53;;;2.92;;
17496;SDS011;62150;43.582;1.456;2022-07-29T07:11:12;7.57;;;3.00;;
17496;SDS011;62150;43.582;1.456;2022-07-29T07:13:44;4.50;;;2.83;;
17496;SDS011;62150;43.582;1.456;2022-07-29T07:16:12;5.13;;;2.88;;
17496;SDS011;62150;43.582;1.456;2022-07-29T07:18:40;4.57;;;2.80;;
17496;SDS011;62150;43.582;1.456;2022-07-29T07:21:10;6.28;;;2.80;;
17496;SDS011;62150;43.582;1.456;2022-07-29T07:23:38;5.50;;;3.08;;
17496;SDS011;62150;43.582;1.456;2022-07-29T07:26:06;5.35;;;2.85;;
17496;SDS011;62150;43.582;1.456;2022-07-29T07:28:35;5.18;;;2.75;;
17496;SDS011;62150;43.582;1.456;2022-07-29T07:31:05;6.10;;;2.97;;
17496;SDS011;62150;43.582;1.456;2022-07-29T07:33:33;6.22;;;3.08;;
17496;SDS011;62150;43.582;1.456;2022-07-29T07:36:00;6.90;;;3.00;;
17496;SDS011;62150;43.582;1.456;2022-07-29T07:38:28;6.88;;;3.15;;
17496;SDS011;62150;43.582;1.456;2022-07-29T07:40:57;6.20;;;3.03;;
17496;SDS011;62150;43.582;1.456;2022-07-29T07:43:24;7.72;;;3.40;;
17496;SDS011;62150;43.582;1.456;2022-07-29T07:45:52;5.47;;;2.78;;
17496;SDS011;62150;43.582;1.456;2022-07-29T07:48:21;6.35;;;2.80;;
17496;SDS011;62150;43.582;1.456;2022-07-29T07:50:49;3.75;;;2.80;;
17496;SDS011;62150;43.582;1.456;2022-07-29T07:53:16;6.57;;;2.90;;
17496;SDS011;62150;43.582;1.456;2022-07-29T07:55:44;6.03;;;3.17;;
17496;SDS011;62150;43.582;1.456;2022-07-29T07:58:11;6.60;;;3.05;;
17496;SDS011;62150;43.582;1.456;2022-07-29T08:00:39;4.72;;;2.90;;
17496;SDS011;62150;43.582;1.456;2022-07-29T08:03:07;6.25;;;3.17;;
17496;SDS011;62150;43.582;1.456;2022-07-29T08:05:39;7.65;;;3.30;;
17496;SDS011;62150;43.582;1.456;2022-07-29T08:08:06;6.50;;;3.17;;
17496;SDS011;62150;43.582;1.456;2022-07-29T08:10:34;7.22;;;3.22;;
17496;SDS011;62150;43.582;1.456;2022-07-29T08:13:21;5.93;;;3.15;;
17496;SDS011;62150;43.582;1.456;2022-07-29T08:15:52;5.93;;;3.15;;
17496;SDS011;62150;43.582;1.456;2022-07-29T08:18:25;7.00;;;3.28;;
17496;SDS011;62150;43.582;1.456;2022-07-29T08:20:55;7.18;;;3.05;;
17496;SDS011;62150;43.582;1.456;2022-07-29T08:23:23;5.05;;;2.97;;
17496;SDS011;62150;43.582;1.456;2022-07-29T08:25:52;7.05;;;3.10;;
17496;SDS011;62150;43.582;1.456;2022-07-29T08:28:19;4.30;;;2.88;;
17496;SDS011;62150;43.582;1.456;2022-07-29T08:30:47;6.72;;;3.17;;
17496;SDS011;62150;43.582;1.456;2022-07-29T08:33:15;6.78;;;3.10;;
17496;SDS011;62150;43.582;1.456;2022-07-29T08:35:43;6.70;;;3.25;;
17496;SDS011;62150;43.582;1.456;2022-07-29T08:38:12;7.13;;;3.28;;
17496;SDS011;62150;43.582;1.456;2022-07-29T08:40:39;5.85;;;3.08;;
17496;SDS011;62150;43.582;1.456;2022-07-29T08:43:08;7.60;;;3.13;;
17496;SDS011;62150;43.582;1.456;2022-07-29T08:45:41;7.78;;;3.05;;
17496;SDS011;62150;43.582;1.456;2022-07-29T08:48:11;6.55;;;3.17;;
17496;SDS011;62150;43.582;1.456;2022-07-29T08:50:40;8.32;;;3.25;;
17496;SDS011;62150;43.582;1.456;2022-07-29T08:53:12;7.22;;;3.17;;
17496;SDS011;62150;43.582;1.456;2022-07-29T08:55:41;7.10;;;3.00;;
17496;SDS011;62150;43.582;1.456;2022-07-29T08:58:11;4.88;;;2.83;;
17496;SDS011;62150;43.582;1.456;2022-07-29T09:00:41;6.00;;;3.03;;
17496;SDS011;62150;43.582;1.456;2022-07-29T09:03:12;5.70;;;2.95;;
17496;SDS011;62150;43.582;1.456;2022-07-29T09:05:44;7.63;;;3.20;;
17496;SDS011;62150;43.582;1.456;2022-07-29T09:08:14;5.80;;;2.85;;
17496;SDS011;62150;43.582;1.456;2022-07-29T09:10:42;6.90;;;3.30;;
17496;SDS011;62150;43.582;1.456;2022-07-29T09:13:11;8.43;;;3.30;;
17496;SDS011;62150;43.582;1.456;2022-07-29T09:15:38;7.38;;;3.00;;
17496;SDS011;62150;43.582;1.456;2022-07-29T09:18:06;6.03;;;2.78;;
17496;SDS011;62150;43.582;1.456;2022-07-29T09:20:34;6.10;;;3.05;;
17496;SDS011;62150;43.582;1.456;2022-07-29T09:23:20;6.50;;;3.00;;
17496;SDS011;62150;43.582;1.456;2022-07-29T09:25:48;5.03;;;2.97;;
17496;SDS011;62150;43.582;1.456;2022-07-29T09:28:17;7.28;;;3.10;;
17496;SDS011;62150;43.582;1.456;2022-07-29T09:30:52;7.47;;;3.28;;
17496;SDS011;62150;43.582;1.456;2022-07-29T09:33:21;6.20;;;3.20;;
17496;SDS011;62150;43.582;1.456;2022-07-29T09:35:58;6.35;;;3.20;;
17496;SDS011;62150;43.582;1.456;2022-07-29T09:38:29;6.20;;;3.35;;
17496;SDS011;62150;43.582;1.456;2022-07-29T09:40:57;7.97;;;3.25;;
17496;SDS011;62150;43.582;1.456;2022-07-29T09:43:26;6.85;;;3.53;;
17496;SDS011;62150;43.582;1.456;2022-07-29T09:45:54;7.80;;;3.33;;
17496;SDS011;62150;43.582;1.456;2022-07-29T09:48:22;7.18;;;3.60;;
17496;SDS011;62150;43.582;1.456;2022-07-29T09:50:51;8.00;;;3.55;;
17496;SDS011;62150;43.582;1.456;2022-07-29T09:53:33;6.95;;;3.83;;
17496;SDS011;62150;43.582;1.456;2022-07-29T09:56:02;7.97;;;3.60;;
17496;SDS011;62150;43.582;1.456;2022-07-29T09:58:30;8.82;;;3.75;;
17496;SDS011;62150;43.582;1.456;2022-07-29T10:00:59;7.15;;;3.60;;
17496;SDS011;62150;43.582;1.456;2022-07-29T10:03:28;7.95;;;3.70;;
17496;SDS011;62150;43.582;1.456;2022-07-29T10:06:05;7.93;;;3.75;;
17496;SDS011;62150;43.582;1.456;2022-07-29T10:08:36;8.82;;;3.90;;
17496;SDS011;62150;43.582;1.456;2022-07-29T10:11:10;7.82;;;3.55;;
17496;SDS011;62150;43.582;1.456;2022-07-29T10:13:39;9.82;;;4.00;;
17496;SDS011;62150;43.582;1.456;2022-07-29T10:16:08;7.75;;;3.50;;
17496;SDS011;62150;43.582;1.456;2022-07-29T10:18:36;7.35;;;3.33;;
17496;SDS011;62150;43.582;1.456;2022-07-29T10:21:05;8.48;;;3.30;;
17496;SDS011;62150;43.582;1.456;2022-07-29T10:23:36;7.00;;;3.03;;
17496;SDS011;62150;43.582;1.456;2022-07-29T10:26:04;6.03;;;3.10;;
17496;SDS011;62150;43.582;1.456;2022-07-29T10:28:33;5.82;;;3.20;;
17496;SDS011;62150;43.582;1.456;2022-07-29T10:31:03;7.03;;;3.70;;
17496;SDS011;62150;43.582;1.456;2022-07-29T10:33:42;6.53;;;3.28;;
17496;SDS011;62150;43.582;1.456;2022-07-29T10:36:23;6.82;;;3.30;;
17496;SDS011;62150;43.582;1.456;2022-07-29T10:39:08;6.65;;;3.30;;
17496;SDS011;62150;43.582;1.456;2022-07-29T10:41:56;5.60;;;3.15;;
17496;SDS011;62150;43.582;1.456;2022-07-29T10:44:34;6.45;;;3.28;;
17496;SDS011;62150;43.582;1.456;2022-07-29T10:47:05;6.68;;;3.13;;
17496;SDS011;62150;43.582;1.456;2022-07-29T10:49:33;6.50;;;3.33;;
17496;SDS011;62150;43.582;1.456;2022-07-29T10:52:03;6.80;;;3.50;;
17496;SDS011;62150;43.582;1.456;2022-07-29T10:54:39;5.50;;;3.22;;
17496;SDS011;62150;43.582;1.456;2022-07-29T10:57:17;6.30;;;3.40;;
17496;SDS011;62150;43.582;1.456;2022-07-29T11:02:51;6.90;;;3.13;;
17496;SDS011;62150;43.582;1.456;2022-07-29T11:05:21;5.38;;;3.15;;
17496;SDS011;62150;43.582;1.456;2022-07-29T11:10:48;6.40;;;3.13;;
17496;SDS011;62150;43.582;1.456;2022-07-29T11:16:17;6.65;;;3.13;;
17496;SDS011;62150;43.582;1.456;2022-07-29T11:21:46;6.47;;;3.00;;
17496;SDS011;62150;43.582;1.456;2022-07-29T11:24:15;6.68;;;3.25;;
17496;SDS011;62150;43.582;1.456;2022-07-29T11:29:48;5.28;;;2.95;;
17496;SDS011;62150;43.582;1.456;2022-07-29T11:32:18;7.68;;;3.22;;
17496;SDS011;62150;43.582;1.456;2022-07-29T11:34:47;5.15;;;2.95;;
17496;SDS011;62150;43.582;1.456;2022-07-29T11:37:16;5.90;;;3.45;;
17496;SDS011;62150;43.582;1.456;2022-07-29T11:39:46;6.43;;;3.30;;
17496;SDS011;62150;43.582;1.456;2022-07-29T11:42:43;7.45;;;3.40;;
17496;SDS011;62150;43.582;1.456;2022-07-29T11:45:13;6.85;;;3.35;;
17496;SDS011;62150;43.582;1.456;2022-07-29T11:47:46;7.05;;;3.40;;
17496;SDS011;62150;43.582;1.456;2022-07-29T11:50:26;7.57;;;3.30;;
17496;SDS011;62150;43.582;1.456;2022-07-29T11:52:56;4.65;;;3.03;;
17496;SDS011;62150;43.582;1.456;2022-07-29T11:55:24;4.97;;;3.15;;
17496;SDS011;62150;43.582;1.456;2022-07-29T11:57:58;6.10;;;3.15;;
17496;SDS011;62150;43.582;1.456;2022-07-29T12:00:28;6.20;;;3.17;;
17496;SDS011;62150;43.582;1.456;2022-07-29T12:02:59;4.68;;;2.72;;
17496;SDS011;62150;43.582;1.456;2022-07-29T12:05:33;4.28;;;2.65;;
17496;SDS011;62150;43.582;1.456;2022-07-29T12:08:06;5.28;;;2.70;;
17496;SDS011;62150;43.582;1.456;2022-07-29T12:10:39;5.63;;;2.80;;
17496;SDS011;62150;43.582;1.456;2022-07-29T12:13:08;5.57;;;2.90;;
17496;SDS011;62150;43.582;1.456;2022-07-29T12:15:37;5.13;;;2.90;;
17496;SDS011;62150;43.582;1.456;2022-07-29T12:18:11;4.13;;;2.60;;
17496;SDS011;62150;43.582;1.456;2022-07-29T12:20:41;6.15;;;2.95;;
17496;SDS011;62150;43.582;1.456;2022-07-29T12:23:09;5.90;;;2.90;;
17496;SDS011;62150;43.582;1.456;2022-07-29T12:25:38;4.45;;;2.60;;
17496;SDS011;62150;43.582;1.456;2022-07-29T12:28:11;6.65;;;2.88;;
17496;SDS011;62150;43.582;1.456;2022-07-29T12:30:41;5.63;;;2.83;;
17496;SDS011;62150;43.582;1.456;2022-07-29T12:33:18;5.57;;;2.83;;
17496;SDS011;62150;43.582;1.456;2022-07-29T12:35:49;4.70;;;2.63;;
17496;SDS011;62150;43.582;1.456;2022-07-29T12:38:22;4.40;;;2.70;;
17496;SDS011;62150;43.582;1.456;2022-07-29T12:40:49;5.25;;;2.70;;
17496;SDS011;62150;43.582;1.456;2022-07-29T12:43:21;4.18;;;2.72;;
17496;SDS011;62150;43.582;1.456;2022-07-29T12:45:50;5.60;;;3.08;;
17496;SDS011;62150;43.582;1.456;2022-07-29T12:48:32;6.70;;;2.90;;
17496;SDS011;62150;43.582;1.456;2022-07-29T12:51:00;4.82;;;2.83;;
17496;SDS011;62150;43.582;1.456;2022-07-29T12:53:29;4.93;;;2.70;;
17496;SDS011;62150;43.582;1.456;2022-07-29T12:55:58;5.45;;;2.80;;
17496;SDS011;62150;43.582;1.456;2022-07-29T12:58:29;6.75;;;2.90;;
17496;SDS011;62150;43.582;1.456;2022-07-29T13:01:08;5.65;;;2.97;;
17496;SDS011;62150;43.582;1.456;2022-07-29T13:03:44;4.85;;;2.80;;
17496;SDS011;62150;43.582;1.456;2022-07-29T13:09:02;7.57;;;3.08;;
17496;SDS011;62150;43.582;1.456;2022-07-29T13:11:32;5.20;;;3.00;;
17496;SDS011;62150;43.582;1.456;2022-07-29T13:14:03;5.28;;;2.88;;
17496;SDS011;62150;43.582;1.456;2022-07-29T13:16:31;4.65;;;3.00;;
17496;SDS011;62150;43.582;1.456;2022-07-29T13:19:07;4.97;;;3.00;;
17496;SDS011;62150;43.582;1.456;2022-07-29T13:21:37;5.85;;;2.92;;
17496;SDS011;62150;43.582;1.456;2022-07-29T13:24:06;5.00;;;2.85;;
17496;SDS011;62150;43.582;1.456;2022-07-29T13:26:34;5.40;;;2.80;;
17496;SDS011;62150;43.582;1.456;2022-07-29T13:29:07;4.45;;;2.90;;
17496;SDS011;62150;43.582;1.456;2022-07-29T13:31:35;6.68;;;2.90;;
17496;SDS011;62150;43.582;1.456;2022-07-29T13:34:02;4.40;;;2.60;;
17496;SDS011;62150;43.582;1.456;2022-07-29T13:36:31;5.82;;;2.85;;
17496;SDS011;62150;43.582;1.456;2022-07-29T13:38:58;5.38;;;2.80;;
17496;SDS011;62150;43.582;1.456;2022-07-29T13:41:27;5.18;;;3.03;;
17496;SDS011;62150;43.582;1.456;2022-07-29T13:43:56;5.10;;;2.75;;
17496;SDS011;62150;43.582;1.456;2022-07-29T13:46:25;3.97;;;2.67;;
17496;SDS011;62150;43.582;1.456;2022-07-29T13:48:52;5.07;;;2.95;;
17496;SDS011;62150;43.582;1.456;2022-07-29T13:51:20;6.65;;;2.85;;
17496;SDS011;62150;43.582;1.456;2022-07-29T13:53:48;7.47;;;3.00;;
17496;SDS011;62150;43.582;1.456;2022-07-29T13:56:16;4.95;;;2.67;;
17496;SDS011;62150;43.582;1.456;2022-07-29T13:58:44;4.50;;;2.60;;
17496;SDS011;62150;43.582;1.456;2022-07-29T14:01:11;6.47;;;2.83;;
17496;SDS011;62150;43.582;1.456;2022-07-29T14:03:40;6.63;;;2.92;;
17496;SDS011;62150;43.582;1.456;2022-07-29T14:06:08;6.82;;;3.00;;
17496;SDS011;62150;43.582;1.456;2022-07-29T14:08:35;3.40;;;2.60;;
17496;SDS011;62150;43.582;1.456;2022-07-29T14:11:03;5.43;;;2.65;;
17496;SDS011;62150;43.582;1.456;2022-07-29T14:13:31;6.00;;;2.85;;
17496;SDS011;62150;43.582;1.456;2022-07-29T14:15:59;5.20;;;2.70;;
17496;SDS011;62150;43.582;1.456;2022-07-29T14:18:26;4.68;;;2.70;;
17496;SDS011;62150;43.582;1.456;2022-07-29T14:20:55;6.05;;;3.00;;
17496;SDS011;62150;43.582;1.456;2022-07-29T14:23:24;5.22;;;2.80;;
17496;SDS011;62150;43.582;1.456;2022-07-29T14:25:51;5.60;;;2.85;;
17496;SDS011;62150;43.582;1.456;2022-07-29T14:28:19;5.82;;;3.00;;
17496;SDS011;62150;43.582;1.456;2022-07-29T14:30:47;5.38;;;2.90;;
17496;SDS011;62150;43.582;1.456;2022-07-29T14:33:15;6.43;;;2.90;;
17496;SDS011;62150;43.582;1.456;2022-07-29T14:35:44;4.97;;;3.10;;
17496;SDS011;62150;43.582;1.456;2022-07-29T14:38:13;4.75;;;2.83;;
17496;SDS011;62150;43.582;1.456;2022-07-29T14:40:40;7.25;;;2.92;;
17496;SDS011;62150;43.582;1.456;2022-07-29T14:43:08;6.53;;;2.90;;
17496;SDS011;62150;43.582;1.456;2022-07-29T14:45:36;5.53;;;2.83;;
17496;SDS011;62150;43.582;1.456;2022-07-29T14:48:03;7.45;;;2.70;;
17496;SDS011;62150;43.582;1.456;2022-07-29T14:50:31;4.45;;;2.70;;
17496;SDS011;62150;43.582;1.456;2022-07-29T14:52:59;4.10;;;2.60;;
17496;SDS011;62150;43.582;1.456;2022-07-29T14:55:28;4.68;;;2.53;;
17496;SDS011;62150;43.582;1.456;2022-07-29T14:57:56;6.05;;;2.90;;
17496;SDS011;62150;43.582;1.456;2022-07-29T15:00:24;6.38;;;2.90;;
17496;SDS011;62150;43.582;1.456;2022-07-29T15:02:52;6.15;;;2.78;;
17496;SDS011;62150;43.582;1.456;2022-07-29T15:05:19;7.72;;;3.00;;
17496;SDS011;62150;43.582;1.456;2022-07-29T15:07:47;4.32;;;2.75;;
17496;SDS011;62150;43.582;1.456;2022-07-29T15:10:14;4.50;;;2.92;;
17496;SDS011;62150;43.582;1.456;2022-07-29T15:12:44;5.75;;;2.80;;
17496;SDS011;62150;43.582;1.456;2022-07-29T15:15:12;4.13;;;2.70;;
17496;SDS011;62150;43.582;1.456;2022-07-29T15:17:40;6.05;;;2.95;;
17496;SDS011;62150;43.582;1.456;2022-07-29T15:20:08;5.68;;;2.90;;
17496;SDS011;62150;43.582;1.456;2022-07-29T15:22:36;5.30;;;2.83;;
17496;SDS011;62150;43.582;1.456;2022-07-29T15:25:06;7.72;;;3.33;;
17496;SDS011;62150;43.582;1.456;2022-07-29T15:27:34;6.28;;;2.80;;
17496;SDS011;62150;43.582;1.456;2022-07-29T15:30:03;5.03;;;2.80;;
17496;SDS011;62150;43.582;1.456;2022-07-29T15:32:32;4.38;;;2.60;;
17496;SDS011;62150;43.582;1.456;2022-07-29T15:34:59;5.53;;;2.67;;
17496;SDS011;62150;43.582;1.456;2022-07-29T15:37:28;6.07;;;3.00;;
17496;SDS011;62150;43.582;1.456;2022-07-29T15:39:55;5.05;;;2.70;;
17496;SDS011;62150;43.582;1.456;2022-07-29T15:42:23;4.90;;;2.60;;
17496;SDS011;62150;43.582;1.456;2022-07-29T15:44:50;5.30;;;2.90;;
17496;SDS011;62150;43.582;1.456;2022-07-29T15:47:19;6.07;;;2.78;;
17496;SDS011;62150;43.582;1.456;2022-07-29T15:49:47;5.97;;;2.70;;
17496;SDS011;62150;43.582;1.456;2022-07-29T15:52:15;5.10;;;2.60;;
17496;SDS011;62150;43.582;1.456;2022-07-29T15:54:44;5.78;;;2.60;;
17496;SDS011;62150;43.582;1.456;2022-07-29T15:57:12;4.68;;;2.50;;
17496;SDS011;62150;43.582;1.456;2022-07-29T15:59:39;4.07;;;2.60;;
17496;SDS011;62150;43.582;1.456;2022-07-29T16:02:07;4.97;;;2.70;;
17496;SDS011;62150;43.582;1.456;2022-07-29T16:04:36;5.25;;;2.70;;
17496;SDS011;62150;43.582;1.456;2022-07-29T16:07:04;4.15;;;2.63;;
17496;SDS011;62150;43.582;1.456;2022-07-29T16:09:32;4.03;;;2.45;;
17496;SDS011;62150;43.582;1.456;2022-07-29T16:11:59;4.75;;;2.72;;
17496;SDS011;62150;43.582;1.456;2022-07-29T16:14:27;4.55;;;2.65;;
17496;SDS011;62150;43.582;1.456;2022-07-29T16:16:54;4.90;;;2.80;;
17496;SDS011;62150;43.582;1.456;2022-07-29T16:19:22;5.88;;;3.00;;
17496;SDS011;62150;43.582;1.456;2022-07-29T16:21:51;5.32;;;2.97;;
17496;SDS011;62150;43.582;1.456;2022-07-29T16:24:18;5.45;;;3.10;;
17496;SDS011;62150;43.582;1.456;2022-07-29T16:26:46;5.90;;;3.20;;
17496;SDS011;62150;43.582;1.456;2022-07-29T16:29:14;4.80;;;3.28;;
17496;SDS011;62150;43.582;1.456;2022-07-29T16:31:43;6.70;;;3.30;;
17496;SDS011;62150;43.582;1.456;2022-07-29T16:34:10;5.10;;;3.35;;
17496;SDS011;62150;43.582;1.456;2022-07-29T16:36:38;6.07;;;3.28;;
17496;SDS011;62150;43.582;1.456;2022-07-29T16:39:07;5.03;;;3.13;;
17496;SDS011;62150;43.582;1.456;2022-07-29T16:41:36;6.50;;;3.20;;
17496;SDS011;62150;43.582;1.456;2022-07-29T16:44:04;6.15;;;2.97;;
17496;SDS011;62150;43.582;1.456;2022-07-29T16:46:32;4.85;;;2.83;;
17496;SDS011;62150;43.582;1.456;2022-07-29T16:49:01;4.07;;;2.80;;
17496;SDS011;62150;43.582;1.456;2022-07-29T16:51:29;4.93;;;2.80;;
17496;SDS011;62150;43.582;1.456;2022-07-29T16:53:56;5.78;;;2.90;;
17496;SDS011;62150;43.582;1.456;2022-07-29T16:56:25;4.15;;;2.80;;
17496;SDS011;62150;43.582;1.456;2022-07-29T16:58:53;5.97;;;2.90;;
17496;SDS011;62150;43.582;1.456;2022-07-29T17:01:22;6.75;;;2.90;;
17496;SDS011;62150;43.582;1.456;2022-07-29T17:03:50;6.28;;;3.10;;
17496;SDS011;62150;43.582;1.456;2022-07-29T17:06:32;5.85;;;2.80;;
17496;SDS011;62150;43.582;1.456;2022-07-29T17:09:01;4.93;;;2.80;;
17496;SDS011;62150;43.582;1.456;2022-07-29T17:11:31;4.88;;;3.08;;
17496;SDS011;62150;43.582;1.456;2022-07-29T17:13:59;4.88;;;2.78;;
17496;SDS011;62150;43.582;1.456;2022-07-29T17:16:27;5.18;;;3.10;;
17496;SDS011;62150;43.582;1.456;2022-07-29T17:18:55;5.45;;;2.80;;
17496;SDS011;62150;43.582;1.456;2022-07-29T17:21:23;5.07;;;2.90;;
17496;SDS011;62150;43.582;1.456;2022-07-29T17:23:51;5.90;;;3.05;;
17496;SDS011;62150;43.582;1.456;2022-07-29T17:26:19;7.10;;;3.10;;
17496;SDS011;62150;43.582;1.456;2022-07-29T17:28:48;6.45;;;2.90;;
17496;SDS011;62150;43.582;1.456;2022-07-29T17:31:16;6.35;;;3.20;;
17496;SDS011;62150;43.582;1.456;2022-07-29T17:33:43;4.88;;;3.03;;
17496;SDS011;62150;43.582;1.456;2022-07-29T17:36:11;5.57;;;3.10;;
17496;SDS011;62150;43.582;1.456;2022-07-29T17:38:51;5.47;;;3.10;;
17496;SDS011;62150;43.582;1.456;2022-07-29T17:41:19;5.88;;;2.80;;
17496;SDS011;62150;43.582;1.456;2022-07-29T17:43:49;5.43;;;2.97;;
17496;SDS011;62150;43.582;1.456;2022-07-29T17:46:18;5.65;;;3.10;;
17496;SDS011;62150;43.582;1.456;2022-07-29T17:48:46;5.88;;;3.13;;
17496;SDS011;62150;43.582;1.456;2022-07-29T17:51:14;8.77;;;3.33;;
17496;SDS011;62150;43.582;1.456;2022-07-29T17:53:42;7.55;;;3.40;;
17496;SDS011;62150;43.582;1.456;2022-07-29T17:56:09;5.53;;;3.20;;
17496;SDS011;62150;43.582;1.456;2022-07-29T17:58:38;5.57;;;2.92;;
17496;SDS011;62150;43.582;1.456;2022-07-29T18:01:07;4.60;;;2.85;;
17496;SDS011;62150;43.582;1.456;2022-07-29T18:03:35;6.13;;;2.92;;
17496;SDS011;62150;43.582;1.456;2022-07-29T18:06:02;5.88;;;3.20;;
17496;SDS011;62150;43.582;1.456;2022-07-29T18:08:30;5.13;;;2.97;;
17496;SDS011;62150;43.582;1.456;2022-07-29T18:10:57;4.93;;;3.00;;
17496;SDS011;62150;43.582;1.456;2022-07-29T18:13:25;5.85;;;3.00;;
17496;SDS011;62150;43.582;1.456;2022-07-29T18:15:53;5.13;;;3.10;;
17496;SDS011;62150;43.582;1.456;2022-07-29T18:18:21;4.88;;;2.88;;
17496;SDS011;62150;43.582;1.456;2022-07-29T18:20:49;5.13;;;3.00;;
17496;SDS011;62150;43.582;1.456;2022-07-29T18:23:17;5.13;;;2.75;;
17496;SDS011;62150;43.582;1.456;2022-07-29T18:25:45;5.45;;;2.85;;
17496;SDS011;62150;43.582;1.456;2022-07-29T18:28:12;6.82;;;3.03;;
17496;SDS011;62150;43.582;1.456;2022-07-29T18:30:40;6.10;;;2.83;;
17496;SDS011;62150;43.582;1.456;2022-07-29T18:33:09;4.95;;;3.00;;
17496;SDS011;62150;43.582;1.456;2022-07-29T18:35:42;5.32;;;3.00;;
17496;SDS011;62150;43.582;1.456;2022-07-29T18:38:10;5.53;;;2.80;;
17496;SDS011;62150;43.582;1.456;2022-07-29T18:40:37;4.93;;;2.80;;
17496;SDS011;62150;43.582;1.456;2022-07-29T18:43:06;4.70;;;3.10;;
17496;SDS011;62150;43.582;1.456;2022-07-29T18:45:34;4.68;;;2.75;;
17496;SDS011;62150;43.582;1.456;2022-07-29T18:48:02;4.82;;;2.70;;
17496;SDS011;62150;43.582;1.456;2022-07-29T18:50:30;4.35;;;2.80;;
17496;SDS011;62150;43.582;1.456;2022-07-29T18:52:59;5.07;;;2.80;;
17496;SDS011;62150;43.582;1.456;2022-07-29T18:55:27;5.22;;;2.85;;
17496;SDS011;62150;43.582;1.456;2022-07-29T18:57:55;5.38;;;2.83;;
17496;SDS011;62150;43.582;1.456;2022-07-29T19:00:22;5.40;;;2.92;;
17496;SDS011;62150;43.582;1.456;2022-07-29T19:02:50;4.63;;;2.80;;
17496;SDS011;62150;43.582;1.456;2022-07-29T19:05:18;4.30;;;2.90;;
17496;SDS011;62150;43.582;1.456;2022-07-29T19:07:47;4.55;;;2.78;;
17496;SDS011;62150;43.582;1.456;2022-07-29T19:10:16;5.03;;;2.85;;
17496;SDS011;62150;43.582;1.456;2022-07-29T19:12:43;6.25;;;3.05;;
17496;SDS011;62150;43.582;1.456;2022-07-29T19:15:11;5.10;;;2.72;;
17496;SDS011;62150;43.582;1.456;2022-07-29T19:17:38;5.25;;;2.70;;
17496;SDS011;62150;43.582;1.456;2022-07-29T19:20:06;5.45;;;2.80;;
17496;SDS011;62150;43.582;1.456;2022-07-29T19:22:34;5.15;;;3.00;;
17496;SDS011;62150;43.582;1.456;2022-07-29T19:25:02;4.47;;;2.90;;
17496;SDS011;62150;43.582;1.456;2022-07-29T19:27:32;5.28;;;3.15;;
17496;SDS011;62150;43.582;1.456;2022-07-29T19:29:59;5.25;;;2.90;;
17496;SDS011;62150;43.582;1.456;2022-07-29T19:32:29;5.60;;;2.92;;
17496;SDS011;62150;43.582;1.456;2022-07-29T19:34:57;4.38;;;2.70;;
17496;SDS011;62150;43.582;1.456;2022-07-29T19:37:42;5.47;;;2.95;;
17496;SDS011;62150;43.582;1.456;2022-07-29T19:40:10;5.97;;;3.20;;
17496;SDS011;62150;43.582;1.456;2022-07-29T19:42:39;4.32;;;2.97;;
17496;SDS011;62150;43.582;1.456;2022-07-29T19:45:07;6.90;;;3.50;;
17496;SDS011;62150;43.582;1.456;2022-07-29T19:47:36;6.82;;;3.40;;
17496;SDS011;62150;43.582;1.456;2022-07-29T19:50:04;5.95;;;3.28;;
17496;SDS011;62150;43.582;1.456;2022-07-29T19:52:32;5.15;;;2.90;;
17496;SDS011;62150;43.582;1.456;2022-07-29T19:55:00;6.10;;;3.25;;
17496;SDS011;62150;43.582;1.456;2022-07-29T19:57:28;5.63;;;3.30;;
17496;SDS011;62150;43.582;1.456;2022-07-29T19:59:57;5.80;;;3.20;;
17496;SDS011;62150;43.582;1.456;2022-07-29T20:02:26;6.95;;;3.00;;
17496;SDS011;62150;43.582;1.456;2022-07-29T20:04:53;5.32;;;3.20;;
17496;SDS011;62150;43.582;1.456;2022-07-29T20:07:21;6.07;;;3.20;;
17496;SDS011;62150;43.582;1.456;2022-07-29T20:09:49;6.50;;;3.05;;
17496;SDS011;62150;43.582;1.456;2022-07-29T20:12:19;5.10;;;3.00;;
17496;SDS011;62150;43.582;1.456;2022-07-29T20:14:47;4.80;;;3.00;;
17496;SDS011;62150;43.582;1.456;2022-07-29T20:17:16;5.95;;;3.28;;
17496;SDS011;62150;43.582;1.456;2022-07-29T20:19:46;5.90;;;3.10;;
17496;SDS011;62150;43.582;1.456;2022-07-29T20:22:17;5.38;;;2.80;;
17496;SDS011;62150;43.582;1.456;2022-07-29T20:24:45;5.65;;;2.90;;
17496;SDS011;62150;43.582;1.456;2022-07-29T20:27:13;7.00;;;3.28;;
17496;SDS011;62150;43.582;1.456;2022-07-29T20:29:40;4.85;;;2.80;;
17496;SDS011;62150;43.582;1.456;2022-07-29T20:32:08;5.78;;;3.10;;
17496;SDS011;62150;43.582;1.456;2022-07-29T20:34:38;5.53;;;3.00;;
17496;SDS011;62150;43.582;1.456;2022-07-29T20:37:06;5.43;;;3.08;;
17496;SDS011;62150;43.582;1.456;2022-07-29T20:39:35;4.90;;;2.65;;
17496;SDS011;62150;43.582;1.456;2022-07-29T20:42:03;5.35;;;2.72;;
17496;SDS011;62150;43.582;1.456;2022-07-29T20:44:31;4.65;;;2.90;;
17496;SDS011;62150;43.582;1.456;2022-07-29T20:47:00;5.20;;;2.70;;
17496;SDS011;62150;43.582;1.456;2022-07-29T20:49:27;5.38;;;3.10;;
17496;SDS011;62150;43.582;1.456;2022-07-29T20:51:56;6.00;;;3.00;;
17496;SDS011;62150;43.582;1.456;2022-07-29T20:54:24;5.93;;;3.03;;
17496;SDS011;62150;43.582;1.456;2022-07-29T20:56:52;5.43;;;3.00;;
17496;SDS011;62150;43.582;1.456;2022-07-29T20:59:19;6.15;;;3.05;;
17496;SDS011;62150;43.582;1.456;2022-07-29T21:01:47;6.90;;;3.17;;
17496;SDS011;62150;43.582;1.456;2022-07-29T21:04:15;7.57;;;3.33;;